createdAt,value
2019-03-05T00:00:13.410Z,58.30
2019-03-05T00:00:56.573Z,58.30
2019-03-05T00:01:43.102Z,58.30
2019-03-05T00:02:21.763Z,58.30
2019-03-05T00:03:00.431Z,58.40
2019-03-05T00:03:39.679Z,58.40
2019-03-05T00:04:18.974Z,58.40
2019-03-05T00:04:57.897Z,58.40
2019-03-05T00:05:37.228Z,58.40
2019-03-05T00:06:15.969Z,58.50
2019-03-05T00:06:54.690Z,58.50
2019-03-05T00:07:34.170Z,58.50
2019-03-05T00:08:12.817Z,58.60
2019-03-05T00:08:51.534Z,58.60
2019-03-05T00:09:30.200Z,58.60
2019-03-05T00:10:10.363Z,58.60
2019-03-05T00:10:49.744Z,58.70
2019-03-05T00:11:28.704Z,58.70
2019-03-05T00:12:08.104Z,58.70
2019-03-05T00:12:47.388Z,58.80
2019-03-05T00:13:26.633Z,58.80
2019-03-05T00:14:06.049Z,58.90
2019-03-05T00:14:45.435Z,58.80
2019-03-05T00:15:26.474Z,58.90
2019-03-05T00:16:05.687Z,58.90
2019-03-05T00:16:45.314Z,58.90
2019-03-05T00:17:23.959Z,59.50
2019-03-05T00:18:02.631Z,58.90
2019-03-05T00:18:41.341Z,59.00
2019-03-05T00:19:20.569Z,59.00
2019-03-05T00:19:59.747Z,59.10
2019-03-05T00:20:39.028Z,59.10
2019-03-05T00:21:18.324Z,59.20
2019-03-05T00:21:57.703Z,59.20
2019-03-05T00:22:37.102Z,59.10
2019-03-05T00:23:16.810Z,59.30
2019-03-05T00:24:01.073Z,59.40
2019-03-05T00:25:04.315Z,59.40
2019-03-05T00:25:43.058Z,59.50
2019-03-05T00:26:23.421Z,59.40
2019-03-05T00:27:02.105Z,59.50
2019-03-05T00:27:50.713Z,59.70
2019-03-05T00:28:43.189Z,59.70
2019-03-05T00:30:02.910Z,59.70
2019-03-05T00:31:00.318Z,59.90
2019-03-05T00:31:41.002Z,59.90
2019-03-05T00:32:20.469Z,60.10
2019-03-05T00:33:03.122Z,60.10
2019-03-05T00:34:01.200Z,60.20
2019-03-05T00:35:08.647Z,60.20
2019-03-05T00:36:24.810Z,60.30
2019-03-05T00:37:16.379Z,60.40
2019-03-05T00:38:35.123Z,60.40
2019-03-05T00:39:51.535Z,60.50
2019-03-05T00:41:03.000Z,60.50
2019-03-05T00:42:01.202Z,60.90
2019-03-05T00:43:27.024Z,60.80
2019-03-05T00:44:25.886Z,60.80
2019-03-05T00:45:18.816Z,60.80
2019-03-05T00:46:18.452Z,61.00
2019-03-05T00:47:31.273Z,60.90
2019-03-05T00:48:31.386Z,60.90
2019-03-05T00:49:35.063Z,61.20
2019-03-05T00:50:49.530Z,61.30
2019-03-05T00:52:01.832Z,61.20
2019-03-05T00:53:00.924Z,61.40
2019-03-05T00:54:20.231Z,61.50
2019-03-05T00:55:45.034Z,61.70
2019-03-05T00:56:50.931Z,61.50
2019-03-05T00:57:56.807Z,61.60
2019-03-05T00:59:12.029Z,61.70
2019-03-05T01:00:13.148Z,61.90
2019-03-05T01:01:32.978Z,61.80
2019-03-05T01:02:29.622Z,61.70
2019-03-05T01:03:20.461Z,62.00
2019-03-05T01:04:23.813Z,62.00
2019-03-05T01:05:51.926Z,62.30
2019-03-05T01:06:31.173Z,62.10
2019-03-05T01:07:10.499Z,62.20
2019-03-05T01:07:49.229Z,62.40
2019-03-05T01:08:28.028Z,62.50
2019-03-05T01:09:08.456Z,62.60
2019-03-05T01:09:47.132Z,62.60
2019-03-05T01:10:26.241Z,62.60
2019-03-05T01:11:05.148Z,62.70
2019-03-05T01:11:44.396Z,62.80
2019-03-05T01:12:24.198Z,62.80
2019-03-05T01:13:03.647Z,62.80
2019-03-05T01:13:42.382Z,61.10
2019-03-05T01:14:22.837Z,60.70
2019-03-05T01:15:02.004Z,60.50
2019-03-05T01:15:41.508Z,60.30
2019-03-05T01:16:24.598Z,60.20
2019-03-05T01:17:03.879Z,60.00
2019-03-05T01:17:46.895Z,60.00
2019-03-05T01:18:24.931Z,60.20
2019-03-05T01:19:23.324Z,59.90
2019-03-05T01:20:02.700Z,59.90
2019-03-05T01:20:42.121Z,59.80
2019-03-05T01:21:21.424Z,59.90
2019-03-05T01:22:00.632Z,59.80
2019-03-05T01:22:39.466Z,60.00
2019-03-05T01:23:18.854Z,59.80
2019-03-05T01:23:58.377Z,59.70
2019-03-05T01:24:37.316Z,59.70
2019-03-05T01:25:31.352Z,59.70
2019-03-05T01:26:10.685Z,59.80
2019-03-05T01:26:50.160Z,59.70
2019-03-05T01:27:29.658Z,59.60
2019-03-05T01:28:08.344Z,59.60
2019-03-05T01:28:46.987Z,59.40
2019-03-05T01:29:25.891Z,59.70
2019-03-05T01:30:05.135Z,59.60
2019-03-05T01:31:06.624Z,59.60
2019-03-05T01:32:06.936Z,59.70
2019-03-05T01:32:53.271Z,59.80
2019-03-05T01:33:36.727Z,59.70
2019-03-05T01:34:28.853Z,59.50
2019-03-05T01:35:19.184Z,59.30
2019-03-05T01:36:02.917Z,59.20
2019-03-05T01:36:44.898Z,58.90
2019-03-05T01:37:24.160Z,58.80
2019-03-05T01:38:02.912Z,58.90
2019-03-05T01:38:58.872Z,59.10
2019-03-05T01:39:54.481Z,59.50
2019-03-05T01:40:41.409Z,59.60
2019-03-05T01:41:21.034Z,59.80
2019-03-05T01:41:59.767Z,60.00
2019-03-05T01:42:38.495Z,60.00
2019-03-05T01:43:17.707Z,60.30
2019-03-05T01:43:56.980Z,60.60
2019-03-05T01:44:36.277Z,60.80
2019-03-05T01:45:16.664Z,61.10
2019-03-05T01:45:56.043Z,61.10
2019-03-05T01:46:35.329Z,61.00
2019-03-05T01:47:14.053Z,61.10
2019-03-05T01:47:53.528Z,61.00
2019-03-05T01:48:32.328Z,60.90
2019-03-05T01:49:11.098Z,60.90
2019-03-05T01:49:49.819Z,61.00
2019-03-05T01:50:28.602Z,61.00
2019-03-05T01:51:07.773Z,60.90
2019-03-05T01:51:47.054Z,61.00
2019-03-05T01:52:30.611Z,61.10
2019-03-05T01:53:10.346Z,61.00
2019-03-05T01:53:49.318Z,61.00
2019-03-05T01:54:28.588Z,61.00
2019-03-05T01:55:07.978Z,61.10
2019-03-05T01:55:47.511Z,61.20
2019-03-05T01:56:26.197Z,61.20
2019-03-05T01:57:04.846Z,61.20
2019-03-05T01:57:43.601Z,61.10
2019-03-05T01:58:22.997Z,61.10
2019-03-05T01:59:01.703Z,62.00
2019-03-05T01:59:40.417Z,61.20
2019-03-05T02:00:19.124Z,61.30
2019-03-05T02:00:57.896Z,61.40
2019-03-05T02:01:36.530Z,61.40
2019-03-05T02:02:15.548Z,61.40
2019-03-05T02:02:54.221Z,61.50
2019-03-05T02:03:33.348Z,61.40
2019-03-05T02:04:12.016Z,61.60
2019-03-05T02:04:50.722Z,61.60
2019-03-05T02:05:29.484Z,61.60
2019-03-05T02:06:08.144Z,61.60
2019-03-05T02:06:46.886Z,61.90
2019-03-05T02:07:25.633Z,61.70
2019-03-05T02:08:04.335Z,61.90
2019-03-05T02:08:43.067Z,62.00
2019-03-05T02:09:21.777Z,61.90
2019-03-05T02:10:01.202Z,62.00
2019-03-05T02:10:58.130Z,62.00
2019-03-05T02:11:37.320Z,62.10
2019-03-05T02:12:16.794Z,62.20
2019-03-05T02:12:56.262Z,62.10
2019-03-05T02:13:35.719Z,62.30
2019-03-05T02:14:14.882Z,62.30
2019-03-05T02:14:53.523Z,62.40
2019-03-05T02:15:32.707Z,62.30
2019-03-05T02:16:12.243Z,62.50
2019-03-05T02:16:50.904Z,62.50
2019-03-05T02:17:30.373Z,62.60
2019-03-05T02:18:09.433Z,62.60
2019-03-05T02:18:48.637Z,62.60
2019-03-05T02:19:41.607Z,62.60
2019-03-05T02:20:27.986Z,62.70
2019-03-05T02:21:07.255Z,62.80
2019-03-05T02:21:46.542Z,62.70
2019-03-05T02:22:54.762Z,62.90
2019-03-05T02:24:09.922Z,63.10
2019-03-05T02:25:13.264Z,63.30
2019-03-05T02:26:12.903Z,63.60
2019-03-05T02:27:34.076Z,63.80
2019-03-05T02:28:57.331Z,64.00
2019-03-05T02:29:48.856Z,64.00
2019-03-05T02:30:42.331Z,63.90
2019-03-05T02:31:55.328Z,63.90
2019-03-05T02:33:08.594Z,64.10
2019-03-05T02:34:27.474Z,64.20
2019-03-05T02:35:21.199Z,63.90
2019-03-05T02:36:27.307Z,64.50
2019-03-05T02:37:48.584Z,64.50
2019-03-05T02:38:49.092Z,64.30
2019-03-05T02:40:19.612Z,64.20
2019-03-05T02:41:26.862Z,64.30
2019-03-05T02:42:20.299Z,64.50
2019-03-05T02:43:18.582Z,65.50
2019-03-05T02:44:40.605Z,65.10
2019-03-05T02:45:35.091Z,65.10
2019-03-05T02:46:51.203Z,65.10
2019-03-05T02:47:52.422Z,65.00
2019-03-05T02:49:12.243Z,64.60
2019-03-05T02:50:42.304Z,65.10
2019-03-05T02:51:46.519Z,65.30
2019-03-05T02:53:09.202Z,65.50
2019-03-05T02:54:40.610Z,65.50
2019-03-05T02:56:14.556Z,65.40
2019-03-05T02:57:17.707Z,65.70
2019-03-05T02:57:52.864Z,65.60
2019-03-05T02:58:28.396Z,65.70
2019-03-05T02:59:03.605Z,65.80
2019-03-05T02:59:42.334Z,65.80
2019-03-05T03:00:30.807Z,66.00
2019-03-05T03:01:34.327Z,65.70
2019-03-05T03:02:30.545Z,65.70
2019-03-05T03:03:18.687Z,65.50
2019-03-05T03:04:01.403Z,66.40
2019-03-05T03:04:44.315Z,65.60
2019-03-05T03:05:33.648Z,65.70
2019-03-05T03:06:22.298Z,65.50
2019-03-05T03:07:01.483Z,65.50
2019-03-05T03:07:40.797Z,65.60
2019-03-05T03:08:20.251Z,65.50
2019-03-05T03:09:32.425Z,65.50
2019-03-05T03:10:24.981Z,65.70
2019-03-05T03:11:03.946Z,65.60
2019-03-05T03:11:43.266Z,65.50
2019-03-05T03:12:23.574Z,65.30
2019-03-05T03:13:02.981Z,65.20
2019-03-05T03:13:41.717Z,65.30
2019-03-05T03:14:20.670Z,65.30
2019-03-05T03:14:59.466Z,65.40
2019-03-05T03:15:38.174Z,65.50
2019-03-05T03:16:17.683Z,65.30
2019-03-05T03:16:57.069Z,66.10
2019-03-05T03:17:36.178Z,65.30
2019-03-05T03:18:15.080Z,66.00
2019-03-05T03:18:53.762Z,65.30
2019-03-05T03:19:33.260Z,65.50
2019-03-05T03:20:13.318Z,65.40
2019-03-05T03:20:52.591Z,65.50
2019-03-05T03:21:31.772Z,65.40
2019-03-05T03:22:11.052Z,65.50
2019-03-05T03:22:49.696Z,65.50
2019-03-05T03:23:28.465Z,65.50
2019-03-05T03:24:07.093Z,65.40
2019-03-05T03:24:46.004Z,65.40
2019-03-05T03:25:25.801Z,65.30
2019-03-05T03:26:04.878Z,65.20
2019-03-05T03:26:44.419Z,65.10
2019-03-05T03:27:23.921Z,65.00
2019-03-05T03:28:03.235Z,64.90
2019-03-05T03:28:42.629Z,64.80
2019-03-05T03:29:22.125Z,64.80
2019-03-05T03:30:01.679Z,64.80
2019-03-05T03:30:40.366Z,64.70
2019-03-05T03:31:19.105Z,64.60
2019-03-05T03:31:57.727Z,64.60
2019-03-05T03:32:36.604Z,64.50
2019-03-05T03:33:15.893Z,64.40
2019-03-05T03:33:55.270Z,64.40
2019-03-05T03:34:34.540Z,64.40
2019-03-05T03:35:14.528Z,64.40
2019-03-05T03:35:54.029Z,64.30
2019-03-05T03:36:33.235Z,64.10
2019-03-05T03:37:12.807Z,64.10
2019-03-05T03:37:52.040Z,64.00
2019-03-05T03:38:31.492Z,63.70
2019-03-05T03:39:11.115Z,63.60
2019-03-05T03:39:49.772Z,63.50
2019-03-05T03:40:28.851Z,63.30
2019-03-05T03:41:07.790Z,63.30
2019-03-05T03:41:47.087Z,63.40
2019-03-05T03:42:26.102Z,63.30
2019-03-05T03:43:05.334Z,63.20
2019-03-05T03:43:44.619Z,63.20
2019-03-05T03:44:23.868Z,63.10
2019-03-05T03:45:03.350Z,62.90
2019-03-05T03:45:42.592Z,62.70
2019-03-05T03:46:22.030Z,62.60
2019-03-05T03:47:01.001Z,62.50
2019-03-05T03:47:39.777Z,62.40
2019-03-05T03:48:19.176Z,62.30
2019-03-05T03:48:58.033Z,62.10
2019-03-05T03:49:37.154Z,61.90
2019-03-05T03:50:16.372Z,61.80
2019-03-05T03:50:55.431Z,61.70
2019-03-05T03:51:34.508Z,61.70
2019-03-05T03:52:13.787Z,61.70
2019-03-05T03:52:53.087Z,61.60
2019-03-05T03:53:32.374Z,61.50
2019-03-05T03:54:11.722Z,61.50
2019-03-05T03:54:50.385Z,61.30
2019-03-05T03:55:29.126Z,61.20
2019-03-05T03:56:07.856Z,61.20
2019-03-05T03:56:46.771Z,61.20
2019-03-05T03:57:26.209Z,61.20
2019-03-05T03:58:05.385Z,61.10
2019-03-05T03:58:44.894Z,61.00
2019-03-05T03:59:24.498Z,60.80
2019-03-05T04:00:03.846Z,60.70
2019-03-05T04:00:42.581Z,60.80
2019-03-05T04:01:21.225Z,60.50
2019-03-05T04:01:59.942Z,60.70
2019-03-05T04:02:39.013Z,60.50
2019-03-05T04:03:18.283Z,60.30
2019-03-05T04:03:57.032Z,60.20
2019-03-05T04:04:35.661Z,60.00
2019-03-05T04:05:15.042Z,60.00
2019-03-05T04:05:53.695Z,59.90
2019-03-05T04:06:33.019Z,59.90
2019-03-05T04:07:12.236Z,59.80
2019-03-05T04:07:50.933Z,59.40
2019-03-05T04:08:29.918Z,59.40
2019-03-05T04:09:10.862Z,59.50
2019-03-05T04:09:49.862Z,59.10
2019-03-05T04:10:32.264Z,58.60
2019-03-05T04:11:11.683Z,58.30
2019-03-05T04:11:50.435Z,58.20
2019-03-05T04:12:29.475Z,57.90
2019-03-05T04:13:11.939Z,58.30
2019-03-05T04:13:51.327Z,58.60
2019-03-05T04:14:30.216Z,58.10
2019-03-05T04:15:10.099Z,58.10
2019-03-05T04:15:50.933Z,57.70
2019-03-05T04:16:30.049Z,57.60
2019-03-05T04:17:09.374Z,57.30
2019-03-05T04:17:48.975Z,57.20
2019-03-05T04:18:28.276Z,57.30
2019-03-05T04:19:10.989Z,57.60
2019-03-05T04:19:50.106Z,57.10
2019-03-05T04:20:37.294Z,57.00
2019-03-05T04:21:22.888Z,56.50
2019-03-05T04:22:01.597Z,56.90
2019-03-05T04:22:59.236Z,56.90
2019-03-05T04:23:38.289Z,56.30
2019-03-05T04:24:17.772Z,56.40
2019-03-05T04:24:56.976Z,57.20
2019-03-05T04:25:39.159Z,56.50
2019-03-05T04:26:17.482Z,56.50
2019-03-05T04:26:56.819Z,57.00
2019-03-05T04:27:36.212Z,56.70
2019-03-05T04:28:15.085Z,56.90
2019-03-05T04:28:53.772Z,57.10
2019-03-05T04:29:33.254Z,57.20
2019-03-05T04:30:14.430Z,56.80
2019-03-05T04:30:56.407Z,56.90
2019-03-05T04:31:36.141Z,56.60
2019-03-05T04:32:15.258Z,56.90
2019-03-05T04:32:53.959Z,57.00
2019-03-05T04:33:32.631Z,56.50
2019-03-05T04:34:11.442Z,57.00
2019-03-05T04:34:50.464Z,56.50
2019-03-05T04:35:29.685Z,56.50
2019-03-05T04:36:08.393Z,56.60
2019-03-05T04:36:47.964Z,56.90
2019-03-05T04:37:27.216Z,56.80
2019-03-05T04:38:06.631Z,56.20
2019-03-05T04:38:45.542Z,56.20
2019-03-05T04:39:24.361Z,56.30
2019-03-05T04:40:06.756Z,56.20
2019-03-05T04:40:45.481Z,56.00
2019-03-05T04:41:24.179Z,56.30
2019-03-05T04:42:02.937Z,56.00
2019-03-05T04:42:42.707Z,56.00
2019-03-05T04:43:21.966Z,56.10
2019-03-05T04:44:01.278Z,56.00
2019-03-05T04:44:54.597Z,55.90
2019-03-05T04:45:48.606Z,56.00
2019-03-05T04:46:38.395Z,56.00
2019-03-05T04:47:17.745Z,56.10
2019-03-05T04:47:56.670Z,56.10
2019-03-05T04:48:35.238Z,56.00
2019-03-05T04:49:21.864Z,56.20
2019-03-05T04:50:19.355Z,56.20
2019-03-05T04:51:08.500Z,56.00
2019-03-05T04:51:52.071Z,56.20
2019-03-05T04:52:34.343Z,56.10
2019-03-05T04:53:13.296Z,56.00
2019-03-05T04:53:52.355Z,56.00
2019-03-05T04:54:31.545Z,55.90
2019-03-05T04:55:11.734Z,56.10
2019-03-05T04:55:51.039Z,55.90
2019-03-05T04:56:30.287Z,56.00
2019-03-05T04:57:10.517Z,56.30
2019-03-05T04:57:50.684Z,55.80
2019-03-05T04:58:30.764Z,55.70
2019-03-05T04:59:10.220Z,56.00
2019-03-05T04:59:50.225Z,56.00
2019-03-05T05:00:28.908Z,56.10
2019-03-05T05:01:07.605Z,56.00
2019-03-05T05:01:46.959Z,55.90
2019-03-05T05:02:25.731Z,56.00
2019-03-05T05:03:04.467Z,55.60
2019-03-05T05:03:43.436Z,55.70
2019-03-05T05:04:22.637Z,55.60
2019-03-05T05:05:01.701Z,55.60
2019-03-05T05:05:41.016Z,55.20
2019-03-05T05:06:20.541Z,54.90
2019-03-05T05:06:59.291Z,55.00
2019-03-05T05:07:38.097Z,55.00
2019-03-05T05:08:16.836Z,54.80
2019-03-05T05:08:55.635Z,55.30
2019-03-05T05:09:34.335Z,55.10
2019-03-05T05:10:13.475Z,55.10
2019-03-05T05:10:52.775Z,54.90
2019-03-05T05:11:31.864Z,54.90
2019-03-05T05:12:11.151Z,55.10
2019-03-05T05:12:50.684Z,54.90
2019-03-05T05:13:30.116Z,54.70
2019-03-05T05:14:09.593Z,55.20
2019-03-05T05:14:49.064Z,54.80
2019-03-05T05:15:30.840Z,54.70
2019-03-05T05:16:10.070Z,54.70
2019-03-05T05:16:49.688Z,54.60
2019-03-05T05:17:28.401Z,54.70
2019-03-05T05:18:07.481Z,54.60
2019-03-05T05:18:46.177Z,54.60
2019-03-05T05:19:27.316Z,54.20
2019-03-05T05:20:05.188Z,54.60
2019-03-05T05:20:44.335Z,54.10
2019-03-05T05:21:23.363Z,54.70
2019-03-05T05:22:02.328Z,54.50
2019-03-05T05:22:41.892Z,55.00
2019-03-05T05:23:21.124Z,54.30
2019-03-05T05:24:00.413Z,54.50
2019-03-05T05:24:39.327Z,54.60
2019-03-05T05:25:18.427Z,54.50
2019-03-05T05:25:57.770Z,54.90
2019-03-05T05:26:36.922Z,54.50
2019-03-05T05:27:15.884Z,54.40
2019-03-05T05:27:55.150Z,54.40
2019-03-05T05:28:34.210Z,54.40
2019-03-05T05:29:13.681Z,54.40
2019-03-05T05:29:52.842Z,54.30
2019-03-05T05:30:34.444Z,54.40
2019-03-05T05:31:14.036Z,54.50
2019-03-05T05:31:53.562Z,54.40
2019-03-05T05:32:33.051Z,54.40
2019-03-05T05:33:12.178Z,54.40
2019-03-05T05:33:51.359Z,54.50
2019-03-05T05:34:30.210Z,54.50
2019-03-05T05:35:09.011Z,54.50
2019-03-05T05:35:47.649Z,54.30
2019-03-05T05:36:26.646Z,54.40
2019-03-05T05:37:05.552Z,54.20
2019-03-05T05:37:44.830Z,54.10
2019-03-05T05:38:24.167Z,54.20
2019-03-05T05:39:03.215Z,54.20
2019-03-05T05:40:16.268Z,54.20
2019-03-05T05:40:54.983Z,54.20
2019-03-05T05:41:33.623Z,54.30
2019-03-05T05:42:12.432Z,54.40
2019-03-05T05:42:51.104Z,54.40
2019-03-05T05:43:31.980Z,54.40
2019-03-05T05:44:11.447Z,54.40
2019-03-05T05:44:50.803Z,54.40
2019-03-05T05:45:32.226Z,54.40
2019-03-05T05:46:11.768Z,54.40
2019-03-05T05:46:51.080Z,54.40
2019-03-05T05:47:30.376Z,54.40
2019-03-05T05:48:09.062Z,54.40
2019-03-05T05:48:47.842Z,54.40
2019-03-05T05:49:26.975Z,54.40
2019-03-05T05:50:05.942Z,54.30
2019-03-05T05:50:44.675Z,54.20
2019-03-05T05:51:23.813Z,54.20
2019-03-05T05:52:03.352Z,54.20
2019-03-05T05:52:43.391Z,54.20
2019-03-05T05:53:22.056Z,54.20
2019-03-05T05:54:00.733Z,54.10
2019-03-05T05:54:39.457Z,54.10
2019-03-05T05:55:18.273Z,54.10
2019-03-05T05:55:57.536Z,54.10
2019-03-05T05:56:36.936Z,54.20
2019-03-05T05:57:15.632Z,54.20
2019-03-05T05:57:54.243Z,54.30
2019-03-05T05:58:33.683Z,54.20
2019-03-05T05:59:13.912Z,54.20
2019-03-05T05:59:52.656Z,54.20
2019-03-05T06:00:32.420Z,54.20
2019-03-05T06:01:13.674Z,54.20
2019-03-05T06:01:53.149Z,54.40
2019-03-05T06:02:32.565Z,54.40
2019-03-05T06:03:11.239Z,54.50
2019-03-05T06:03:50.006Z,54.40
2019-03-05T06:04:29.082Z,54.40
2019-03-05T06:05:08.533Z,54.50
2019-03-05T06:05:47.327Z,54.40
2019-03-05T06:06:26.281Z,53.90
2019-03-05T06:07:05.401Z,53.90
2019-03-05T06:07:44.072Z,53.60
2019-03-05T06:08:23.250Z,53.40
2019-03-05T06:09:02.248Z,53.40
2019-03-05T06:09:40.896Z,53.40
2019-03-05T06:10:19.236Z,53.40
2019-03-05T06:10:58.837Z,53.50
2019-03-05T06:11:38.386Z,53.50
2019-03-05T06:12:17.580Z,53.40
2019-03-05T06:12:57.146Z,53.40
2019-03-05T06:13:36.547Z,53.40
2019-03-05T06:14:15.273Z,53.30
2019-03-05T06:14:54.632Z,53.40
2019-03-05T06:15:33.596Z,53.40
2019-03-05T06:16:12.967Z,53.50
2019-03-05T06:16:52.091Z,53.50
2019-03-05T06:17:31.781Z,53.30
2019-03-05T06:18:10.658Z,53.20
2019-03-05T06:18:49.684Z,53.20
2019-03-05T06:19:29.396Z,53.30
2019-03-05T06:20:09.277Z,53.20
2019-03-05T06:20:48.810Z,53.20
2019-03-05T06:21:28.581Z,53.10
2019-03-05T06:22:07.446Z,53.10
2019-03-05T06:22:45.935Z,53.20
2019-03-05T06:23:24.640Z,53.10
2019-03-05T06:24:03.332Z,53.10
2019-03-05T06:24:42.149Z,53.20
2019-03-05T06:25:20.870Z,53.20
2019-03-05T06:26:00.054Z,53.10
2019-03-05T06:26:39.207Z,53.10
2019-03-05T06:27:18.187Z,53.10
2019-03-05T06:27:57.613Z,53.00
2019-03-05T06:28:37.146Z,53.10
2019-03-05T06:29:16.875Z,53.10
2019-03-05T06:29:56.147Z,53.10
2019-03-05T06:30:35.685Z,52.90
2019-03-05T06:31:14.335Z,52.90
2019-03-05T06:31:53.195Z,52.90
2019-03-05T06:32:32.707Z,52.90
2019-03-05T06:33:11.632Z,52.90
2019-03-05T06:33:50.485Z,52.90
2019-03-05T06:34:29.962Z,53.00
2019-03-05T06:35:09.325Z,53.00
2019-03-05T06:35:48.877Z,53.00
2019-03-05T06:36:28.323Z,52.90
2019-03-05T06:37:07.000Z,52.90
2019-03-05T06:37:46.520Z,53.10
2019-03-05T06:38:25.590Z,52.90
2019-03-05T06:39:06.312Z,53.00
2019-03-05T06:39:48.086Z,53.10
2019-03-05T06:40:26.364Z,52.90
2019-03-05T06:41:05.797Z,52.80
2019-03-05T06:41:45.220Z,52.80
2019-03-05T06:42:23.928Z,52.70
2019-03-05T06:43:02.605Z,52.70
2019-03-05T06:43:41.600Z,53.30
2019-03-05T06:44:20.322Z,52.80
2019-03-05T06:44:59.217Z,52.80
2019-03-05T06:45:38.765Z,52.80
2019-03-05T06:46:17.710Z,52.90
2019-03-05T06:46:56.615Z,52.90
2019-03-05T06:47:35.334Z,53.00
2019-03-05T06:48:14.395Z,52.90
2019-03-05T06:48:53.079Z,53.00
2019-03-05T06:49:32.212Z,53.00
2019-03-05T06:50:13.349Z,53.00
2019-03-05T06:50:52.112Z,53.10
2019-03-05T06:51:31.092Z,53.00
2019-03-05T06:52:11.842Z,53.00
2019-03-05T06:52:50.996Z,53.20
2019-03-05T06:53:30.494Z,53.10
2019-03-05T06:54:09.572Z,53.10
2019-03-05T06:54:48.944Z,53.10
2019-03-05T06:55:27.975Z,53.40
2019-03-05T06:56:06.772Z,53.10
2019-03-05T06:56:45.468Z,53.20
2019-03-05T06:57:24.054Z,53.10
2019-03-05T06:58:02.840Z,53.20
2019-03-05T06:58:41.627Z,53.20
2019-03-05T06:59:20.869Z,53.20
2019-03-05T07:00:00.423Z,53.10
2019-03-05T07:00:40.902Z,53.30
2019-03-05T07:01:20.098Z,53.30
2019-03-05T07:01:59.347Z,53.20
2019-03-05T07:02:38.804Z,53.20
2019-03-05T07:03:18.348Z,53.20
2019-03-05T07:03:57.039Z,53.20
2019-03-05T07:04:36.337Z,53.30
2019-03-05T07:05:50.194Z,53.30
2019-03-05T07:06:55.628Z,53.30
2019-03-05T07:07:35.224Z,53.40
2019-03-05T07:08:14.941Z,53.40
2019-03-05T07:09:01.482Z,53.50
2019-03-05T07:10:12.230Z,53.40
2019-03-05T07:11:20.921Z,53.40
2019-03-05T07:12:23.225Z,53.50
2019-03-05T07:13:14.593Z,53.60
2019-03-05T07:14:03.347Z,53.60
2019-03-05T07:15:20.231Z,53.60
2019-03-05T07:16:37.932Z,53.60
2019-03-05T07:17:26.146Z,53.70
2019-03-05T07:18:15.315Z,53.80
2019-03-05T07:19:03.903Z,53.90
2019-03-05T07:19:57.940Z,53.80
2019-03-05T07:21:19.231Z,53.80
2019-03-05T07:22:28.540Z,53.90
2019-03-05T07:23:47.496Z,53.90
2019-03-05T07:25:05.844Z,54.00
2019-03-05T07:25:45.045Z,54.60
2019-03-05T07:26:27.648Z,54.00
2019-03-05T07:27:06.454Z,54.10
2019-03-05T07:27:51.160Z,54.10
2019-03-05T07:28:30.537Z,54.10
2019-03-05T07:29:09.097Z,54.10
2019-03-05T07:29:48.019Z,54.20
2019-03-05T07:30:30.384Z,54.10
2019-03-05T07:31:09.791Z,54.90
2019-03-05T07:31:48.785Z,54.20
2019-03-05T07:32:28.088Z,54.30
2019-03-05T07:33:06.784Z,54.30
2019-03-05T07:33:47.380Z,54.40
2019-03-05T07:34:30.275Z,54.30
2019-03-05T07:35:09.971Z,54.30
2019-03-05T07:35:49.131Z,54.40
2019-03-05T07:36:28.170Z,54.70
2019-03-05T07:37:07.268Z,54.50
2019-03-05T07:37:46.190Z,54.50
2019-03-05T07:38:24.898Z,54.60
2019-03-05T07:39:06.874Z,54.50
2019-03-05T07:39:45.579Z,54.50
2019-03-05T07:40:25.045Z,54.60
2019-03-05T07:41:05.028Z,54.60
2019-03-05T07:41:45.101Z,54.60
2019-03-05T07:42:25.121Z,54.70
2019-03-05T07:43:04.979Z,54.70
2019-03-05T07:44:41.503Z,54.80
2019-03-05T07:45:23.612Z,54.80
2019-03-05T07:46:02.454Z,54.80
2019-03-05T07:46:41.953Z,54.80
2019-03-05T07:47:21.263Z,54.90
2019-03-05T07:48:00.338Z,54.80
2019-03-05T07:48:39.043Z,54.90
2019-03-05T07:49:17.817Z,55.00
2019-03-05T07:49:57.158Z,54.90
2019-03-05T07:50:36.279Z,55.00
2019-03-05T07:51:14.968Z,54.90
2019-03-05T07:51:54.056Z,54.90
2019-03-05T07:52:32.787Z,55.00
2019-03-05T07:53:11.530Z,55.60
2019-03-05T07:53:51.003Z,55.10
2019-03-05T07:54:29.767Z,55.20
2019-03-05T07:55:13.657Z,55.10
2019-03-05T07:55:49.134Z,55.00
2019-03-05T07:56:27.774Z,55.00
2019-03-05T07:57:06.827Z,55.00
2019-03-05T07:57:46.170Z,55.10
2019-03-05T07:58:25.422Z,55.20
2019-03-05T07:59:04.778Z,55.10
2019-03-05T07:59:43.413Z,55.10
2019-03-05T08:00:23.732Z,55.10
2019-03-05T08:01:02.412Z,55.10
2019-03-05T08:01:41.053Z,55.00
2019-03-05T08:02:19.776Z,55.10
2019-03-05T08:02:59.225Z,55.10
2019-03-05T08:03:39.324Z,55.10
2019-03-05T08:04:18.258Z,55.00
2019-03-05T08:04:57.558Z,55.10
2019-03-05T08:05:36.980Z,55.20
2019-03-05T08:06:15.805Z,55.10
2019-03-05T08:06:55.009Z,55.10
2019-03-05T08:07:33.632Z,55.20
2019-03-05T08:08:46.468Z,55.10
2019-03-05T08:09:35.524Z,55.20
2019-03-05T08:10:30.535Z,55.30
2019-03-05T08:11:09.206Z,55.30
2019-03-05T08:11:47.922Z,55.30
2019-03-05T08:12:54.910Z,55.30
2019-03-05T08:14:17.855Z,55.30
2019-03-05T08:15:05.976Z,55.40
2019-03-05T08:16:12.317Z,55.40
2019-03-05T08:16:51.648Z,55.50
2019-03-05T08:17:31.164Z,55.40
2019-03-05T08:18:09.877Z,55.50
2019-03-05T08:18:48.523Z,55.50
2019-03-05T08:19:27.157Z,55.50
2019-03-05T08:20:05.829Z,55.50
2019-03-05T08:20:45.089Z,55.50
2019-03-05T08:21:24.314Z,55.40
2019-03-05T08:22:03.498Z,55.50
2019-03-05T08:22:42.218Z,55.50
2019-03-05T08:23:20.981Z,55.50
2019-03-05T08:23:59.865Z,55.60
2019-03-05T08:24:39.106Z,55.60
2019-03-05T08:25:18.564Z,55.60
2019-03-05T08:25:57.276Z,55.70
2019-03-05T08:26:36.434Z,55.70
2019-03-05T08:27:15.112Z,55.70
2019-03-05T08:27:53.832Z,55.60
2019-03-05T08:28:32.926Z,55.80
2019-03-05T08:29:12.283Z,55.80
2019-03-05T08:29:50.945Z,55.80
2019-03-05T08:30:30.904Z,55.80
2019-03-05T08:31:09.588Z,55.70
2019-03-05T08:31:48.873Z,55.80
2019-03-05T08:32:28.196Z,55.90
2019-03-05T08:33:07.210Z,55.90
2019-03-05T08:33:46.721Z,55.90
2019-03-05T08:34:25.396Z,55.90
2019-03-05T08:35:04.100Z,55.90
2019-03-05T08:35:43.061Z,56.10
2019-03-05T08:36:21.830Z,56.10
2019-03-05T08:37:00.614Z,56.10
2019-03-05T08:37:39.695Z,56.00
2019-03-05T08:38:19.286Z,55.90
2019-03-05T08:39:17.610Z,55.90
2019-03-05T08:39:56.337Z,56.00
2019-03-05T08:40:35.027Z,56.10
2019-03-05T08:41:14.475Z,56.00
2019-03-05T08:41:53.219Z,56.00
2019-03-05T08:42:31.908Z,55.90
2019-03-05T08:43:11.361Z,56.00
2019-03-05T08:43:50.174Z,56.10
2019-03-05T08:44:29.015Z,56.10
2019-03-05T08:45:08.407Z,55.90
2019-03-05T08:45:47.922Z,55.90
2019-03-05T08:46:26.582Z,55.80
2019-03-05T08:47:05.238Z,55.70
2019-03-05T08:47:43.909Z,55.70
2019-03-05T08:48:23.468Z,55.80
2019-03-05T08:49:02.254Z,55.90
2019-03-05T08:49:41.439Z,55.90
2019-03-05T08:50:21.116Z,55.90
2019-03-05T08:51:00.432Z,55.80
2019-03-05T08:51:39.706Z,55.90
2019-03-05T08:52:19.069Z,55.80
2019-03-05T08:52:58.222Z,55.80
2019-03-05T08:53:48.808Z,56.40
2019-03-05T08:54:18.205Z,55.80
2019-03-05T08:54:56.868Z,55.80
2019-03-05T08:55:35.600Z,55.80
2019-03-05T08:56:15.467Z,55.60
2019-03-05T08:56:54.149Z,55.60
2019-03-05T08:57:32.925Z,55.60
2019-03-05T08:58:11.693Z,55.60
2019-03-05T08:58:50.893Z,55.60
2019-03-05T08:59:32.485Z,55.60
2019-03-05T09:00:12.559Z,55.50
2019-03-05T09:00:51.616Z,55.40
2019-03-05T09:01:30.864Z,55.50
2019-03-05T09:02:10.319Z,55.50
2019-03-05T09:02:49.588Z,55.40
2019-03-05T09:03:28.265Z,55.50
2019-03-05T09:04:06.875Z,55.60
2019-03-05T09:04:46.223Z,55.60
2019-03-05T09:05:24.871Z,55.60
2019-03-05T09:06:03.674Z,55.60
2019-03-05T09:06:42.948Z,55.60
2019-03-05T09:07:21.632Z,55.50
2019-03-05T09:08:02.090Z,55.60
2019-03-05T09:08:41.421Z,55.60
2019-03-05T09:09:20.829Z,55.50
2019-03-05T09:10:00.369Z,55.50
2019-03-05T09:10:40.032Z,55.50
2019-03-05T09:11:18.783Z,55.40
2019-03-05T09:11:57.438Z,55.50
2019-03-05T09:12:36.142Z,55.60
2019-03-05T09:13:14.876Z,55.60
2019-03-05T09:13:53.815Z,55.60
2019-03-05T09:14:34.471Z,55.60
2019-03-05T09:15:15.206Z,55.60
2019-03-05T09:15:53.839Z,55.70
2019-03-05T09:16:33.038Z,55.50